sensor_id;sensor_type;location;lat;lon;timestamp;P1;durP1;ratioP1;P2;durP2;ratioP2
9759;SDS011;4919;48.792;9.202;2023-05-14T00:02:11;7.17;;;4.90;;
9759;SDS011;4919;48.792;9.202;2023-05-14T00:04:55;7.57;;;5.10;;
9759;SDS011;4919;48.792;9.202;2023-05-14T00:07:40;7.13;;;5.30;;
9759;SDS011;4919;48.792;9.202;2023-05-14T00:10:26;6.40;;;4.77;;
9759;SDS011;4919;48.792;9.202;2023-05-14T00:13:11;6.03;;;4.97;;
9759;SDS011;4919;48.792;9.202;2023-05-14T00:15:55;6.17;;;5.03;;
9759;SDS011;4919;48.792;9.202;2023-05-14T00:18:40;6.43;;;5.10;;
9759;SDS011;4919;48.792;9.202;2023-05-14T00:21:25;6.27;;;5.07;;
9759;SDS011;4919;48.792;9.202;2023-05-14T00:24:10;8.47;;;4.83;;
9759;SDS011;4919;48.792;9.202;2023-05-14T00:26:55;6.27;;;4.80;;
9759;SDS011;4919;48.792;9.202;2023-05-14T00:29:40;5.77;;;4.23;;
9759;SDS011;4919;48.792;9.202;2023-05-14T00:32:24;5.50;;;4.77;;
9759;SDS011;4919;48.792;9.202;2023-05-14T00:35:09;6.00;;;4.43;;
9759;SDS011;4919;48.792;9.202;2023-05-14T00:37:54;8.97;;;4.70;;
9759;SDS011;4919;48.792;9.202;2023-05-14T00:40:39;8.17;;;5.00;;
9759;SDS011;4919;48.792;9.202;2023-05-14T00:43:24;8.23;;;5.10;;
9759;SDS011;4919;48.792;9.202;2023-05-14T00:46:09;7.40;;;5.47;;
9759;SDS011;4919;48.792;9.202;2023-05-14T00:48:55;6.93;;;5.37;;
9759;SDS011;4919;48.792;9.202;2023-05-14T00:51:41;6.23;;;4.57;;
9759;SDS011;4919;48.792;9.202;2023-05-14T00:54:26;7.43;;;4.90;;
9759;SDS011;4919;48.792;9.202;2023-05-14T00:57:12;5.77;;;4.30;;
9759;SDS011;4919;48.792;9.202;2023-05-14T00:59:57;9.47;;;4.97;;
9759;SDS011;4919;48.792;9.202;2023-05-14T01:02:42;7.07;;;4.63;;
9759;SDS011;4919;48.792;9.202;2023-05-14T01:12:01;9.07;;;5.33;;
9759;SDS011;4919;48.792;9.202;2023-05-14T01:15:10;8.33;;;5.00;;
9759;SDS011;4919;48.792;9.202;2023-05-14T01:18:06;7.73;;;5.10;;
9759;SDS011;4919;48.792;9.202;2023-05-14T01:20:52;6.43;;;5.10;;
9759;SDS011;4919;48.792;9.202;2023-05-14T01:23:37;6.37;;;4.93;;
9759;SDS011;4919;48.792;9.202;2023-05-14T01:26:22;6.90;;;5.03;;
9759;SDS011;4919;48.792;9.202;2023-05-14T01:29:22;7.40;;;5.43;;
9759;SDS011;4919;48.792;9.202;2023-05-14T01:32:11;6.20;;;4.53;;
9759;SDS011;4919;48.792;9.202;2023-05-14T01:34:59;8.73;;;5.50;;
9759;SDS011;4919;48.792;9.202;2023-05-14T01:37:44;6.87;;;5.30;;
9759;SDS011;4919;48.792;9.202;2023-05-14T01:40:31;6.53;;;5.07;;
9759;SDS011;4919;48.792;9.202;2023-05-14T01:43:16;8.77;;;5.03;;
9759;SDS011;4919;48.792;9.202;2023-05-14T01:46:02;7.73;;;5.20;;
9759;SDS011;4919;48.792;9.202;2023-05-14T01:48:47;7.93;;;5.33;;
9759;SDS011;4919;48.792;9.202;2023-05-14T01:51:32;7.60;;;5.03;;
9759;SDS011;4919;48.792;9.202;2023-05-14T01:54:17;7.03;;;5.10;;
9759;SDS011;4919;48.792;9.202;2023-05-14T01:57:02;7.43;;;5.33;;
9759;SDS011;4919;48.792;9.202;2023-05-14T01:59:46;8.37;;;5.43;;
9759;SDS011;4919;48.792;9.202;2023-05-14T02:02:31;7.87;;;5.00;;
9759;SDS011;4919;48.792;9.202;2023-05-14T02:05:16;10.23;;;5.50;;
9759;SDS011;4919;48.792;9.202;2023-05-14T02:08:01;7.20;;;5.07;;
9759;SDS011;4919;48.792;9.202;2023-05-14T02:10:46;7.53;;;5.47;;
9759;SDS011;4919;48.792;9.202;2023-05-14T02:13:31;7.70;;;5.13;;
9759;SDS011;4919;48.792;9.202;2023-05-14T02:16:15;8.90;;;5.27;;
9759;SDS011;4919;48.792;9.202;2023-05-14T02:19:00;8.40;;;5.07;;
9759;SDS011;4919;48.792;9.202;2023-05-14T02:21:45;8.07;;;5.40;;
9759;SDS011;4919;48.792;9.202;2023-05-14T02:24:31;5.83;;;5.07;;
9759;SDS011;4919;48.792;9.202;2023-05-14T02:27:16;6.40;;;4.83;;
9759;SDS011;4919;48.792;9.202;2023-05-14T02:30:01;7.27;;;5.10;;
9759;SDS011;4919;48.792;9.202;2023-05-14T02:32:46;5.73;;;5.07;;
9759;SDS011;4919;48.792;9.202;2023-05-14T02:35:31;8.33;;;5.27;;
9759;SDS011;4919;48.792;9.202;2023-05-14T02:38:16;8.03;;;5.47;;
9759;SDS011;4919;48.792;9.202;2023-05-14T02:41:01;6.67;;;5.03;;
9759;SDS011;4919;48.792;9.202;2023-05-14T02:43:46;7.37;;;5.00;;
9759;SDS011;4919;48.792;9.202;2023-05-14T02:46:31;7.40;;;5.10;;
9759;SDS011;4919;48.792;9.202;2023-05-14T02:49:16;6.60;;;4.70;;
9759;SDS011;4919;48.792;9.202;2023-05-14T02:52:01;6.27;;;4.97;;
9759;SDS011;4919;48.792;9.202;2023-05-14T02:54:46;6.07;;;4.53;;
9759;SDS011;4919;48.792;9.202;2023-05-14T02:57:31;5.73;;;4.70;;
9759;SDS011;4919;48.792;9.202;2023-05-14T03:00:16;8.73;;;4.60;;
9759;SDS011;4919;48.792;9.202;2023-05-14T03:03:01;5.57;;;4.63;;
9759;SDS011;4919;48.792;9.202;2023-05-14T03:05:46;8.73;;;5.10;;
9759;SDS011;4919;48.792;9.202;2023-05-14T03:08:31;7.23;;;4.70;;
9759;SDS011;4919;48.792;9.202;2023-05-14T03:11:15;6.27;;;4.47;;
9759;SDS011;4919;48.792;9.202;2023-05-14T03:14:00;6.07;;;4.37;;
9759;SDS011;4919;48.792;9.202;2023-05-14T03:16:45;6.60;;;4.60;;
9759;SDS011;4919;48.792;9.202;2023-05-14T03:19:30;6.37;;;4.57;;
9759;SDS011;4919;48.792;9.202;2023-05-14T03:22:15;6.57;;;5.00;;
9759;SDS011;4919;48.792;9.202;2023-05-14T03:25:00;6.17;;;4.67;;
9759;SDS011;4919;48.792;9.202;2023-05-14T03:27:45;7.90;;;4.80;;
9759;SDS011;4919;48.792;9.202;2023-05-14T03:30:29;6.53;;;4.40;;
9759;SDS011;4919;48.792;9.202;2023-05-14T03:33:15;7.20;;;4.53;;
9759;SDS011;4919;48.792;9.202;2023-05-14T03:36:00;5.53;;;4.30;;
9759;SDS011;4919;48.792;9.202;2023-05-14T03:38:45;5.43;;;4.30;;
9759;SDS011;4919;48.792;9.202;2023-05-14T03:41:29;9.17;;;4.50;;
9759;SDS011;4919;48.792;9.202;2023-05-14T03:44:14;5.40;;;4.00;;
9759;SDS011;4919;48.792;9.202;2023-05-14T03:46:59;5.60;;;4.50;;
9759;SDS011;4919;48.792;9.202;2023-05-14T03:49:44;7.13;;;4.57;;
9759;SDS011;4919;48.792;9.202;2023-05-14T03:52:29;6.60;;;4.20;;
9759;SDS011;4919;48.792;9.202;2023-05-14T03:55:13;5.50;;;4.37;;
9759;SDS011;4919;48.792;9.202;2023-05-14T03:57:58;7.37;;;4.50;;
9759;SDS011;4919;48.792;9.202;2023-05-14T04:00:43;5.70;;;4.50;;
9759;SDS011;4919;48.792;9.202;2023-05-14T04:03:28;7.77;;;4.57;;
9759;SDS011;4919;48.792;9.202;2023-05-14T04:06:13;6.90;;;4.33;;
9759;SDS011;4919;48.792;9.202;2023-05-14T04:08:58;6.77;;;4.57;;
9759;SDS011;4919;48.792;9.202;2023-05-14T04:11:42;5.57;;;4.43;;
9759;SDS011;4919;48.792;9.202;2023-05-14T04:14:27;7.33;;;4.07;;
9759;SDS011;4919;48.792;9.202;2023-05-14T04:17:12;5.03;;;3.87;;
9759;SDS011;4919;48.792;9.202;2023-05-14T04:19:57;5.23;;;3.93;;
9759;SDS011;4919;48.792;9.202;2023-05-14T04:22:42;5.63;;;4.20;;
9759;SDS011;4919;48.792;9.202;2023-05-14T04:25:27;4.90;;;3.60;;
9759;SDS011;4919;48.792;9.202;2023-05-14T04:28:12;5.07;;;3.60;;
9759;SDS011;4919;48.792;9.202;2023-05-14T04:30:56;5.80;;;4.13;;
9759;SDS011;4919;48.792;9.202;2023-05-14T04:33:41;5.87;;;4.47;;
9759;SDS011;4919;48.792;9.202;2023-05-14T04:36:26;5.53;;;4.00;;
9759;SDS011;4919;48.792;9.202;2023-05-14T04:39:11;5.60;;;3.57;;
9759;SDS011;4919;48.792;9.202;2023-05-14T04:41:56;5.93;;;4.17;;
9759;SDS011;4919;48.792;9.202;2023-05-14T04:44:41;7.90;;;4.27;;
9759;SDS011;4919;48.792;9.202;2023-05-14T04:47:26;6.07;;;4.10;;
9759;SDS011;4919;48.792;9.202;2023-05-14T04:50:10;4.90;;;4.03;;
9759;SDS011;4919;48.792;9.202;2023-05-14T04:52:56;4.60;;;3.53;;
9759;SDS011;4919;48.792;9.202;2023-05-14T04:55:40;6.57;;;4.77;;
9759;SDS011;4919;48.792;9.202;2023-05-14T04:58:25;5.63;;;4.10;;
9759;SDS011;4919;48.792;9.202;2023-05-14T05:01:10;5.10;;;3.90;;
9759;SDS011;4919;48.792;9.202;2023-05-14T05:03:55;4.93;;;3.97;;
9759;SDS011;4919;48.792;9.202;2023-05-14T05:06:40;6.17;;;3.67;;
9759;SDS011;4919;48.792;9.202;2023-05-14T05:09:25;7.23;;;4.20;;
9759;SDS011;4919;48.792;9.202;2023-05-14T05:12:10;4.53;;;3.60;;
9759;SDS011;4919;48.792;9.202;2023-05-14T05:14:55;4.47;;;3.67;;
9759;SDS011;4919;48.792;9.202;2023-05-14T05:17:40;3.80;;;3.37;;
9759;SDS011;4919;48.792;9.202;2023-05-14T05:20:25;5.20;;;3.60;;
9759;SDS011;4919;48.792;9.202;2023-05-14T05:23:10;4.67;;;4.00;;
9759;SDS011;4919;48.792;9.202;2023-05-14T05:25:55;4.07;;;3.67;;
9759;SDS011;4919;48.792;9.202;2023-05-14T05:28:40;4.30;;;3.90;;
9759;SDS011;4919;48.792;9.202;2023-05-14T05:31:25;4.07;;;3.20;;
9759;SDS011;4919;48.792;9.202;2023-05-14T05:34:09;5.03;;;3.63;;
9759;SDS011;4919;48.792;9.202;2023-05-14T05:36:54;4.53;;;3.33;;
9759;SDS011;4919;48.792;9.202;2023-05-14T05:39:39;4.57;;;3.40;;
9759;SDS011;4919;48.792;9.202;2023-05-14T05:42:24;4.53;;;3.30;;
9759;SDS011;4919;48.792;9.202;2023-05-14T05:45:09;4.83;;;3.40;;
9759;SDS011;4919;48.792;9.202;2023-05-14T05:47:54;4.43;;;3.63;;
9759;SDS011;4919;48.792;9.202;2023-05-14T05:50:39;4.97;;;3.53;;
9759;SDS011;4919;48.792;9.202;2023-05-14T05:53:24;5.57;;;3.70;;
9759;SDS011;4919;48.792;9.202;2023-05-14T05:56:08;5.53;;;3.27;;
9759;SDS011;4919;48.792;9.202;2023-05-14T05:58:53;4.27;;;3.30;;
9759;SDS011;4919;48.792;9.202;2023-05-14T06:01:38;4.10;;;3.60;;
9759;SDS011;4919;48.792;9.202;2023-05-14T06:04:23;4.23;;;3.60;;
9759;SDS011;4919;48.792;9.202;2023-05-14T06:07:08;5.60;;;3.90;;
9759;SDS011;4919;48.792;9.202;2023-05-14T06:09:53;4.40;;;3.63;;
9759;SDS011;4919;48.792;9.202;2023-05-14T06:12:38;5.40;;;3.40;;
9759;SDS011;4919;48.792;9.202;2023-05-14T06:15:23;4.77;;;3.93;;
9759;SDS011;4919;48.792;9.202;2023-05-14T06:18:08;5.10;;;4.10;;
9759;SDS011;4919;48.792;9.202;2023-05-14T06:20:52;4.23;;;3.60;;
9759;SDS011;4919;48.792;9.202;2023-05-14T06:23:37;4.50;;;3.67;;
9759;SDS011;4919;48.792;9.202;2023-05-14T06:26:22;5.17;;;3.80;;
9759;SDS011;4919;48.792;9.202;2023-05-14T06:29:07;5.40;;;3.80;;
9759;SDS011;4919;48.792;9.202;2023-05-14T06:31:52;5.23;;;3.50;;
9759;SDS011;4919;48.792;9.202;2023-05-14T06:34:36;5.10;;;3.73;;
9759;SDS011;4919;48.792;9.202;2023-05-14T06:37:21;5.00;;;3.60;;
9759;SDS011;4919;48.792;9.202;2023-05-14T06:40:06;4.97;;;3.97;;
9759;SDS011;4919;48.792;9.202;2023-05-14T06:42:51;5.60;;;3.23;;
9759;SDS011;4919;48.792;9.202;2023-05-14T06:45:36;4.23;;;3.10;;
9759;SDS011;4919;48.792;9.202;2023-05-14T06:48:21;4.47;;;3.07;;
9759;SDS011;4919;48.792;9.202;2023-05-14T06:51:06;4.27;;;3.37;;
9759;SDS011;4919;48.792;9.202;2023-05-14T06:53:51;3.63;;;3.27;;
9759;SDS011;4919;48.792;9.202;2023-05-14T06:56:36;3.77;;;3.00;;
9759;SDS011;4919;48.792;9.202;2023-05-14T06:59:20;3.40;;;2.90;;
9759;SDS011;4919;48.792;9.202;2023-05-14T07:02:05;3.73;;;3.00;;
9759;SDS011;4919;48.792;9.202;2023-05-14T07:04:50;3.03;;;2.73;;
9759;SDS011;4919;48.792;9.202;2023-05-14T07:07:35;5.17;;;3.50;;
9759;SDS011;4919;48.792;9.202;2023-05-14T07:10:20;3.70;;;3.13;;
9759;SDS011;4919;48.792;9.202;2023-05-14T07:13:05;4.87;;;3.20;;
9759;SDS011;4919;48.792;9.202;2023-05-14T07:15:51;4.70;;;3.37;;
9759;SDS011;4919;48.792;9.202;2023-05-14T07:18:36;3.80;;;3.00;;
9759;SDS011;4919;48.792;9.202;2023-05-14T07:21:21;3.37;;;3.07;;
9759;SDS011;4919;48.792;9.202;2023-05-14T07:24:06;3.40;;;3.00;;
9759;SDS011;4919;48.792;9.202;2023-05-14T07:26:51;3.37;;;2.90;;
9759;SDS011;4919;48.792;9.202;2023-05-14T07:29:36;3.70;;;3.07;;
9759;SDS011;4919;48.792;9.202;2023-05-14T07:32:20;4.50;;;3.50;;
9759;SDS011;4919;48.792;9.202;2023-05-14T07:35:05;3.20;;;2.80;;
9759;SDS011;4919;48.792;9.202;2023-05-14T07:37:51;4.47;;;3.00;;
9759;SDS011;4919;48.792;9.202;2023-05-14T07:40:36;3.70;;;3.00;;
9759;SDS011;4919;48.792;9.202;2023-05-14T07:43:21;4.07;;;3.10;;
9759;SDS011;4919;48.792;9.202;2023-05-14T07:46:05;4.07;;;3.07;;
9759;SDS011;4919;48.792;9.202;2023-05-14T07:48:50;4.00;;;3.20;;
9759;SDS011;4919;48.792;9.202;2023-05-14T07:51:35;3.40;;;3.00;;
9759;SDS011;4919;48.792;9.202;2023-05-14T07:54:20;4.83;;;2.90;;
9759;SDS011;4919;48.792;9.202;2023-05-14T07:57:05;2.93;;;2.63;;
9759;SDS011;4919;48.792;9.202;2023-05-14T07:59:50;3.00;;;2.70;;
9759;SDS011;4919;48.792;9.202;2023-05-14T08:02:35;4.07;;;2.80;;
9759;SDS011;4919;48.792;9.202;2023-05-14T08:05:20;3.53;;;2.80;;
9759;SDS011;4919;48.792;9.202;2023-05-14T08:08:04;3.10;;;2.63;;
9759;SDS011;4919;48.792;9.202;2023-05-14T08:10:49;3.13;;;2.80;;
9759;SDS011;4919;48.792;9.202;2023-05-14T08:13:34;3.23;;;2.63;;
9759;SDS011;4919;48.792;9.202;2023-05-14T08:16:19;3.53;;;2.90;;
9759;SDS011;4919;48.792;9.202;2023-05-14T08:19:04;3.03;;;2.73;;
9759;SDS011;4919;48.792;9.202;2023-05-14T08:21:49;3.63;;;2.60;;
9759;SDS011;4919;48.792;9.202;2023-05-14T08:24:34;3.33;;;2.53;;
9759;SDS011;4919;48.792;9.202;2023-05-14T08:27:18;2.97;;;2.67;;
9759;SDS011;4919;48.792;9.202;2023-05-14T08:30:03;2.87;;;2.50;;
9759;SDS011;4919;48.792;9.202;2023-05-14T08:32:49;3.93;;;2.40;;
9759;SDS011;4919;48.792;9.202;2023-05-14T08:35:34;2.30;;;2.10;;
9759;SDS011;4919;48.792;9.202;2023-05-14T08:38:19;3.63;;;2.50;;
9759;SDS011;4919;48.792;9.202;2023-05-14T08:41:04;3.20;;;2.30;;
9759;SDS011;4919;48.792;9.202;2023-05-14T08:43:56;2.73;;;2.10;;
9759;SDS011;4919;48.792;9.202;2023-05-14T08:46:51;3.37;;;2.70;;
9759;SDS011;4919;48.792;9.202;2023-05-14T08:49:44;3.97;;;2.30;;
9759;SDS011;4919;48.792;9.202;2023-05-14T08:52:30;3.43;;;2.47;;
9759;SDS011;4919;48.792;9.202;2023-05-14T08:55:15;2.40;;;2.20;;
9759;SDS011;4919;48.792;9.202;2023-05-14T08:58:00;2.93;;;2.40;;
9759;SDS011;4919;48.792;9.202;2023-05-14T09:00:45;2.50;;;2.30;;
9759;SDS011;4919;48.792;9.202;2023-05-14T09:03:30;2.67;;;2.30;;
9759;SDS011;4919;48.792;9.202;2023-05-14T09:06:16;3.00;;;2.40;;
9759;SDS011;4919;48.792;9.202;2023-05-14T09:09:02;2.40;;;2.20;;
9759;SDS011;4919;48.792;9.202;2023-05-14T09:11:47;2.27;;;2.07;;
9759;SDS011;4919;48.792;9.202;2023-05-14T09:14:34;2.60;;;2.20;;
9759;SDS011;4919;48.792;9.202;2023-05-14T09:17:19;2.60;;;2.40;;
9759;SDS011;4919;48.792;9.202;2023-05-14T09:20:04;2.50;;;2.23;;
9759;SDS011;4919;48.792;9.202;2023-05-14T09:22:53;2.33;;;2.10;;
9759;SDS011;4919;48.792;9.202;2023-05-14T09:25:38;3.67;;;2.50;;
9759;SDS011;4919;48.792;9.202;2023-05-14T09:28:23;2.50;;;2.30;;
9759;SDS011;4919;48.792;9.202;2023-05-14T09:31:09;2.63;;;2.43;;
9759;SDS011;4919;48.792;9.202;2023-05-14T09:33:53;2.70;;;2.33;;
9759;SDS011;4919;48.792;9.202;2023-05-14T09:36:38;2.17;;;1.90;;
9759;SDS011;4919;48.792;9.202;2023-05-14T09:39:24;2.50;;;2.30;;
9759;SDS011;4919;48.792;9.202;2023-05-14T09:42:09;2.90;;;2.17;;
9759;SDS011;4919;48.792;9.202;2023-05-14T09:44:54;2.63;;;2.10;;
9759;SDS011;4919;48.792;9.202;2023-05-14T09:47:39;2.17;;;2.00;;
9759;SDS011;4919;48.792;9.202;2023-05-14T09:50:24;2.83;;;2.43;;
9759;SDS011;4919;48.792;9.202;2023-05-14T09:53:09;2.30;;;2.10;;
9759;SDS011;4919;48.792;9.202;2023-05-14T09:55:54;2.40;;;2.20;;
9759;SDS011;4919;48.792;9.202;2023-05-14T09:58:39;2.53;;;2.33;;
9759;SDS011;4919;48.792;9.202;2023-05-14T10:01:24;2.43;;;2.23;;
9759;SDS011;4919;48.792;9.202;2023-05-14T10:04:09;2.20;;;2.00;;
9759;SDS011;4919;48.792;9.202;2023-05-14T10:06:54;2.30;;;2.10;;
9759;SDS011;4919;48.792;9.202;2023-05-14T10:09:39;2.10;;;1.90;;
9759;SDS011;4919;48.792;9.202;2023-05-14T10:12:27;3.47;;;2.20;;
9759;SDS011;4919;48.792;9.202;2023-05-14T10:15:16;2.50;;;2.23;;
9759;SDS011;4919;48.792;9.202;2023-05-14T10:18:12;2.30;;;2.10;;
9759;SDS011;4919;48.792;9.202;2023-05-14T10:21:04;2.40;;;2.07;;
9759;SDS011;4919;48.792;9.202;2023-05-14T10:23:49;3.27;;;2.20;;
9759;SDS011;4919;48.792;9.202;2023-05-14T10:26:37;3.30;;;2.23;;
9759;SDS011;4919;48.792;9.202;2023-05-14T10:29:35;2.47;;;2.27;;
9759;SDS011;4919;48.792;9.202;2023-05-14T10:32:21;3.03;;;2.60;;
9759;SDS011;4919;48.792;9.202;2023-05-14T10:35:17;2.33;;;2.13;;
9759;SDS011;4919;48.792;9.202;2023-05-14T10:38:06;2.87;;;2.13;;
9759;SDS011;4919;48.792;9.202;2023-05-14T10:40:55;2.97;;;2.30;;
9759;SDS011;4919;48.792;9.202;2023-05-14T10:43:42;2.97;;;2.13;;
9759;SDS011;4919;48.792;9.202;2023-05-14T10:46:27;2.53;;;2.30;;
9759;SDS011;4919;48.792;9.202;2023-05-14T10:49:12;3.03;;;2.20;;
9759;SDS011;4919;48.792;9.202;2023-05-14T10:51:57;2.50;;;2.20;;
9759;SDS011;4919;48.792;9.202;2023-05-14T10:54:52;2.40;;;2.20;;
9759;SDS011;4919;48.792;9.202;2023-05-14T10:57:39;3.33;;;2.17;;
9759;SDS011;4919;48.792;9.202;2023-05-14T11:00:26;2.80;;;2.20;;
9759;SDS011;4919;48.792;9.202;2023-05-14T11:03:11;2.70;;;2.07;;
9759;SDS011;4919;48.792;9.202;2023-05-14T11:05:56;2.97;;;2.10;;
9759;SDS011;4919;48.792;9.202;2023-05-14T11:08:46;2.37;;;2.17;;
9759;SDS011;4919;48.792;9.202;2023-05-14T11:11:32;2.13;;;1.90;;
9759;SDS011;4919;48.792;9.202;2023-05-14T11:14:18;2.33;;;1.97;;
9759;SDS011;4919;48.792;9.202;2023-05-14T11:17:03;2.30;;;2.10;;
9759;SDS011;4919;48.792;9.202;2023-05-14T11:19:48;3.57;;;2.03;;
9759;SDS011;4919;48.792;9.202;2023-05-14T11:22:34;4.17;;;2.30;;
9759;SDS011;4919;48.792;9.202;2023-05-14T11:25:20;2.90;;;2.40;;
9759;SDS011;4919;48.792;9.202;2023-05-14T11:28:04;2.33;;;1.90;;
9759;SDS011;4919;48.792;9.202;2023-05-14T11:30:50;2.60;;;2.07;;
9759;SDS011;4919;48.792;9.202;2023-05-14T11:33:35;2.77;;;2.30;;
9759;SDS011;4919;48.792;9.202;2023-05-14T11:36:20;2.60;;;2.40;;
9759;SDS011;4919;48.792;9.202;2023-05-14T11:39:05;2.23;;;2.00;;
9759;SDS011;4919;48.792;9.202;2023-05-14T11:41:50;2.67;;;2.20;;
9759;SDS011;4919;48.792;9.202;2023-05-14T11:44:35;2.27;;;2.07;;
9759;SDS011;4919;48.792;9.202;2023-05-14T11:47:20;2.67;;;2.20;;
9759;SDS011;4919;48.792;9.202;2023-05-14T11:50:05;2.93;;;2.40;;
9759;SDS011;4919;48.792;9.202;2023-05-14T11:52:54;2.90;;;2.17;;
9759;SDS011;4919;48.792;9.202;2023-05-14T11:55:40;3.97;;;2.07;;
9759;SDS011;4919;48.792;9.202;2023-05-14T11:58:25;2.67;;;2.30;;
9759;SDS011;4919;48.792;9.202;2023-05-14T12:01:11;2.73;;;2.37;;
9759;SDS011;4919;48.792;9.202;2023-05-14T12:03:56;2.40;;;2.20;;
9759;SDS011;4919;48.792;9.202;2023-05-14T12:06:43;3.33;;;2.40;;
9759;SDS011;4919;48.792;9.202;2023-05-14T12:09:28;3.37;;;2.67;;
9759;SDS011;4919;48.792;9.202;2023-05-14T12:12:13;2.63;;;2.43;;
9759;SDS011;4919;48.792;9.202;2023-05-14T12:14:59;2.70;;;2.37;;
9759;SDS011;4919;48.792;9.202;2023-05-14T12:17:50;2.77;;;2.50;;
9759;SDS011;4919;48.792;9.202;2023-05-14T12:20:35;2.60;;;2.13;;
9759;SDS011;4919;48.792;9.202;2023-05-14T12:23:26;2.70;;;2.50;;
9759;SDS011;4919;48.792;9.202;2023-05-14T12:26:12;2.20;;;2.00;;
9759;SDS011;4919;48.792;9.202;2023-05-14T12:29:01;2.10;;;1.90;;
9759;SDS011;4919;48.792;9.202;2023-05-14T12:31:47;3.47;;;2.30;;
9759;SDS011;4919;48.792;9.202;2023-05-14T12:34:32;2.30;;;2.10;;
9759;SDS011;4919;48.792;9.202;2023-05-14T12:37:17;2.73;;;2.40;;
9759;SDS011;4919;48.792;9.202;2023-05-14T12:40:03;2.13;;;1.80;;
9759;SDS011;4919;48.792;9.202;2023-05-14T12:42:48;3.60;;;2.50;;
9759;SDS011;4919;48.792;9.202;2023-05-14T12:45:33;2.40;;;2.00;;
9759;SDS011;4919;48.792;9.202;2023-05-14T12:48:18;2.70;;;2.20;;
9759;SDS011;4919;48.792;9.202;2023-05-14T12:51:03;2.77;;;2.27;;
9759;SDS011;4919;48.792;9.202;2023-05-14T12:53:47;2.83;;;2.20;;
9759;SDS011;4919;48.792;9.202;2023-05-14T12:56:32;2.37;;;1.80;;
9759;SDS011;4919;48.792;9.202;2023-05-14T12:59:17;2.20;;;1.97;;
9759;SDS011;4919;48.792;9.202;2023-05-14T13:02:02;2.37;;;2.03;;
9759;SDS011;4919;48.792;9.202;2023-05-14T13:04:47;2.60;;;1.80;;
9759;SDS011;4919;48.792;9.202;2023-05-14T13:07:32;2.00;;;1.80;;
9759;SDS011;4919;48.792;9.202;2023-05-14T13:10:17;2.53;;;1.97;;
9759;SDS011;4919;48.792;9.202;2023-05-14T13:13:01;2.00;;;1.80;;
9759;SDS011;4919;48.792;9.202;2023-05-14T13:15:46;2.10;;;1.90;;
9759;SDS011;4919;48.792;9.202;2023-05-14T13:18:31;2.30;;;1.90;;
9759;SDS011;4919;48.792;9.202;2023-05-14T13:21:16;2.97;;;1.90;;
9759;SDS011;4919;48.792;9.202;2023-05-14T13:24:01;2.17;;;1.93;;
9759;SDS011;4919;48.792;9.202;2023-05-14T13:26:46;2.10;;;1.90;;
9759;SDS011;4919;48.792;9.202;2023-05-14T13:29:30;2.10;;;1.90;;
9759;SDS011;4919;48.792;9.202;2023-05-14T13:32:15;2.40;;;2.20;;
9759;SDS011;4919;48.792;9.202;2023-05-14T13:35:00;2.00;;;1.80;;
9759;SDS011;4919;48.792;9.202;2023-05-14T13:37:45;2.40;;;2.20;;
9759;SDS011;4919;48.792;9.202;2023-05-14T13:40:30;2.30;;;2.10;;
9759;SDS011;4919;48.792;9.202;2023-05-14T13:43:15;2.20;;;1.80;;
9759;SDS011;4919;48.792;9.202;2023-05-14T13:46:00;2.47;;;2.20;;
9759;SDS011;4919;48.792;9.202;2023-05-14T13:48:45;2.63;;;2.07;;
9759;SDS011;4919;48.792;9.202;2023-05-14T13:51:30;2.20;;;2.00;;
9759;SDS011;4919;48.792;9.202;2023-05-14T13:54:15;2.17;;;1.93;;
9759;SDS011;4919;48.792;9.202;2023-05-14T13:57:00;2.27;;;2.07;;
9759;SDS011;4919;48.792;9.202;2023-05-14T13:59:45;2.70;;;2.07;;
9759;SDS011;4919;48.792;9.202;2023-05-14T14:02:30;2.07;;;1.83;;
9759;SDS011;4919;48.792;9.202;2023-05-14T14:05:15;2.13;;;1.93;;
9759;SDS011;4919;48.792;9.202;2023-05-14T14:08:00;1.90;;;1.80;;
9759;SDS011;4919;48.792;9.202;2023-05-14T14:10:45;3.30;;;2.20;;
9759;SDS011;4919;48.792;9.202;2023-05-14T14:13:29;1.90;;;1.70;;
9759;SDS011;4919;48.792;9.202;2023-05-14T14:16:14;2.20;;;2.00;;
9759;SDS011;4919;48.792;9.202;2023-05-14T14:18:59;2.13;;;1.93;;
9759;SDS011;4919;48.792;9.202;2023-05-14T14:21:44;4.03;;;2.20;;
9759;SDS011;4919;48.792;9.202;2023-05-14T14:24:29;2.97;;;2.47;;
9759;SDS011;4919;48.792;9.202;2023-05-14T14:27:14;2.60;;;2.10;;
9759;SDS011;4919;48.792;9.202;2023-05-14T14:29:59;3.00;;;2.20;;
9759;SDS011;4919;48.792;9.202;2023-05-14T14:32:47;2.67;;;2.10;;
9759;SDS011;4919;48.792;9.202;2023-05-14T14:35:32;2.03;;;1.83;;
9759;SDS011;4919;48.792;9.202;2023-05-14T14:38:17;2.40;;;2.07;;
9759;SDS011;4919;48.792;9.202;2023-05-14T14:41:02;2.57;;;2.23;;
9759;SDS011;4919;48.792;9.202;2023-05-14T14:43:47;2.20;;;2.00;;
9759;SDS011;4919;48.792;9.202;2023-05-14T14:46:32;2.90;;;1.87;;
9759;SDS011;4919;48.792;9.202;2023-05-14T14:49:17;2.53;;;1.87;;
9759;SDS011;4919;48.792;9.202;2023-05-14T14:52:01;2.07;;;1.90;;
9759;SDS011;4919;48.792;9.202;2023-05-14T14:54:46;2.13;;;1.93;;
9759;SDS011;4919;48.792;9.202;2023-05-14T14:57:31;2.30;;;2.07;;
9759;SDS011;4919;48.792;9.202;2023-05-14T15:00:16;2.53;;;1.80;;
9759;SDS011;4919;48.792;9.202;2023-05-14T15:03:01;2.23;;;2.00;;
9759;SDS011;4919;48.792;9.202;2023-05-14T15:05:46;2.47;;;2.00;;
9759;SDS011;4919;48.792;9.202;2023-05-14T15:08:31;1.80;;;1.70;;
9759;SDS011;4919;48.792;9.202;2023-05-14T15:11:16;1.93;;;1.80;;
9759;SDS011;4919;48.792;9.202;2023-05-14T15:14:01;2.63;;;2.00;;
9759;SDS011;4919;48.792;9.202;2023-05-14T15:16:46;1.93;;;1.77;;
9759;SDS011;4919;48.792;9.202;2023-05-14T15:19:31;1.83;;;1.60;;
9759;SDS011;4919;48.792;9.202;2023-05-14T15:22:16;2.10;;;1.80;;
9759;SDS011;4919;48.792;9.202;2023-05-14T15:25:01;2.03;;;1.83;;
9759;SDS011;4919;48.792;9.202;2023-05-14T15:27:46;1.77;;;1.67;;
9759;SDS011;4919;48.792;9.202;2023-05-14T15:30:31;3.87;;;2.27;;
9759;SDS011;4919;48.792;9.202;2023-05-14T15:33:16;3.03;;;2.00;;
9759;SDS011;4919;48.792;9.202;2023-05-14T15:36:01;2.27;;;2.07;;
9759;SDS011;4919;48.792;9.202;2023-05-14T15:38:46;2.77;;;1.87;;
9759;SDS011;4919;48.792;9.202;2023-05-14T15:41:30;2.17;;;1.90;;
9759;SDS011;4919;48.792;9.202;2023-05-14T15:44:15;2.13;;;1.90;;
9759;SDS011;4919;48.792;9.202;2023-05-14T15:47:00;1.97;;;1.70;;
9759;SDS011;4919;48.792;9.202;2023-05-14T15:49:45;2.50;;;1.80;;
9759;SDS011;4919;48.792;9.202;2023-05-14T15:52:30;2.40;;;1.70;;
9759;SDS011;4919;48.792;9.202;2023-05-14T15:55:15;2.00;;;1.83;;
9759;SDS011;4919;48.792;9.202;2023-05-14T15:58:00;2.77;;;2.00;;
9759;SDS011;4919;48.792;9.202;2023-05-14T16:00:45;2.47;;;1.93;;
9759;SDS011;4919;48.792;9.202;2023-05-14T16:03:30;2.17;;;1.97;;
9759;SDS011;4919;48.792;9.202;2023-05-14T16:06:14;2.67;;;2.20;;
9759;SDS011;4919;48.792;9.202;2023-05-14T16:08:59;3.27;;;2.03;;
9759;SDS011;4919;48.792;9.202;2023-05-14T16:11:44;1.80;;;1.70;;
9759;SDS011;4919;48.792;9.202;2023-05-14T16:14:29;2.73;;;1.97;;
9759;SDS011;4919;48.792;9.202;2023-05-14T16:17:14;2.07;;;1.87;;
9759;SDS011;4919;48.792;9.202;2023-05-14T16:19:59;2.07;;;1.80;;
9759;SDS011;4919;48.792;9.202;2023-05-14T16:22:44;3.93;;;1.90;;
9759;SDS011;4919;48.792;9.202;2023-05-14T16:25:29;2.23;;;2.03;;
9759;SDS011;4919;48.792;9.202;2023-05-14T16:28:14;2.80;;;1.90;;
9759;SDS011;4919;48.792;9.202;2023-05-14T16:30:59;2.50;;;2.00;;
9759;SDS011;4919;48.792;9.202;2023-05-14T16:33:44;2.20;;;1.73;;
9759;SDS011;4919;48.792;9.202;2023-05-14T16:36:29;2.13;;;2.00;;
9759;SDS011;4919;48.792;9.202;2023-05-14T16:39:13;3.10;;;1.87;;
9759;SDS011;4919;48.792;9.202;2023-05-14T16:41:58;2.00;;;1.80;;
9759;SDS011;4919;48.792;9.202;2023-05-14T16:44:43;2.67;;;2.10;;
9759;SDS011;4919;48.792;9.202;2023-05-14T16:47:28;2.73;;;2.10;;
9759;SDS011;4919;48.792;9.202;2023-05-14T16:50:13;2.20;;;2.00;;
9759;SDS011;4919;48.792;9.202;2023-05-14T16:52:58;2.30;;;2.10;;
9759;SDS011;4919;48.792;9.202;2023-05-14T16:55:43;2.60;;;2.13;;
9759;SDS011;4919;48.792;9.202;2023-05-14T16:58:27;2.20;;;2.00;;
9759;SDS011;4919;48.792;9.202;2023-05-14T17:01:12;2.17;;;1.90;;
9759;SDS011;4919;48.792;9.202;2023-05-14T17:03:57;2.13;;;1.93;;
9759;SDS011;4919;48.792;9.202;2023-05-14T17:06:42;2.20;;;2.00;;
9759;SDS011;4919;48.792;9.202;2023-05-14T17:09:29;2.07;;;1.87;;
9759;SDS011;4919;48.792;9.202;2023-05-14T17:12:13;2.40;;;2.07;;
9759;SDS011;4919;48.792;9.202;2023-05-14T17:14:58;2.07;;;1.90;;